Time;durP1;ratioP1;P1;durP2;ratioP2;P2;SDS_P1;SDS_P2;PMS_P1;PMS_P2;Temp;Humidity;BMP_temperature;BMP_pressure;BME280_temperature;BME280_humidity;BME280_pressure;Samples;Min_cycle;Max_cycle;Signal;HPM_P1;HPM_P2
2022/01/25 00:09:59;;;;;;;19.70;13.20;;;5.60;56.10;;;;;;5053593;28;20396;-74
2022/01/25 00:15:25;;;;;;;20.77;13.63;;;5.80;54.00;;;;;;5040358;28;20566;-75
2022/01/25 00:29:04;;;;;;;22.90;14.10;;;5.70;55.50;;;;;;5046220;28;20409;-73
2022/01/25 00:31:33;;;;;;;23.88;14.20;;;5.80;53.40;;;;;;5044786;28;20405;-74
2022/01/25 00:33:58;;;;;;;17.40;13.55;;;5.80;53.40;;;;;;5052642;28;20393;-75
2022/01/25 00:36:25;;;;;;;24.30;14.60;;;5.90;52.20;;;;;;5051040;28;20850;-75
2022/01/25 00:38:52;;;;;;;18.30;13.20;;;6.00;50.70;;;;;;5051002;28;20420;-72
2022/01/25 00:41:19;;;;;;;19.90;13.40;;;6.00;51.00;;;;;;5051627;28;20394;-75
2022/01/25 00:43:46;;;;;;;21.85;14.70;;;5.90;51.30;;;;;;5040763;28;20457;-74
2022/01/25 00:46:12;;;;;;;19.52;14.70;;;5.80;51.60;;;;;;5032400;28;20908;-75
2022/01/25 00:48:48;;;;;;;21.83;14.63;;;5.70;53.30;;;;;;5031813;28;20395;-74
2022/01/25 00:56:50;;;;;;;20.30;14.40;;;5.70;54.70;;;;;;5036274;28;20470;-74
2022/01/25 00:59:22;;;;;;;24.10;15.05;;;6.00;51.50;;;;;;5051879;28;20446;-74
2022/01/25 01:01:50;;;;;;;24.13;15.52;;;6.00;50.30;;;;;;5052833;28;20460;-75
2022/01/25 01:04:16;;;;;;;24.40;16.02;;;5.90;51.10;;;;;;5051912;28;20393;-74
2022/01/25 01:06:44;;;;;;;23.13;16.77;;;5.90;50.90;;;;;;5051120;28;20391;-75
2022/01/25 01:09:11;;;;;;;21.95;15.18;;;5.80;52.00;;;;;;5050825;28;20423;-75
2022/01/25 01:11:53;;;;;;;24.92;15.68;;;5.80;51.60;;;;;;5033599;28;20400;-75
2022/01/25 01:14:48;;;;;;;25.30;16.40;;;5.70;51.80;;;;;;5032734;28;20879;-75
2022/01/25 01:31:03;;;;;;;27.90;18.10;;;5.60;54.30;;;;;;5053278;28;20742;-74
2022/01/25 01:33:53;;;;;;;26.50;18.70;;;5.60;54.00;;;;;;5052277;28;20406;-74
2022/01/25 01:44:26;;;;;;;32.53;20.00;;;5.60;55.00;;;;;;5063974;28;20388;-75
2022/01/25 01:46:58;;;;;;;35.45;21.58;;;5.50;56.10;;;;;;5058665;28;20396;-74
2022/01/25 01:49:25;;;;;;;30.70;19.98;;;5.40;56.30;;;;;;5055458;28;20393;-74
2022/01/25 01:51:51;;;;;;;32.92;19.90;;;5.50;56.90;;;;;;5040611;28;20860;-74
2022/01/25 01:54:17;;;;;;;31.00;19.90;;;5.80;54.30;;;;;;5047265;28;20400;-74
2022/01/25 01:56:43;;;;;;;33.65;20.95;;;5.80;52.90;;;;;;5051442;28;20386;-74
2022/01/25 01:59:15;;;;;;;43.33;22.92;;;5.70;53.00;;;;;;5051532;28;20405;-74
2022/01/25 02:01:42;;;;;;;38.83;22.15;;;5.60;54.80;;;;;;5051701;28;20403;-74
2022/01/25 02:04:10;;;;;;;30.73;20.98;;;5.40;54.60;;;;;;5051136;28;20811;-74
2022/01/25 02:06:36;;;;;;;44.10;22.70;;;5.40;53.00;;;;;;5033892;28;20421;-74
2022/01/25 02:09:03;;;;;;;37.47;23.50;;;5.40;53.00;;;;;;5049344;28;20428;-74
2022/01/25 02:11:29;;;;;;;34.03;21.83;;;5.40;54.20;;;;;;5056347;28;20427;-74
2022/01/25 02:13:57;;;;;;;34.80;20.97;;;5.80;50.80;;;;;;5057888;28;20449;-74
2022/01/25 02:24:29;;;;;;;41.63;22.52;;;5.90;48.70;;;;;;5044890;28;20403;-75
2022/01/25 02:26:56;;;;;;;32.88;21.55;;;5.70;49.70;;;;;;5056899;28;20386;-74
2022/01/25 02:29:22;;;;;;;42.10;24.85;;;5.70;49.50;;;;;;5054171;28;20385;-74
2022/01/25 02:31:47;;;;;;;42.78;25.23;;;5.50;50.90;;;;;;5057381;28;20513;-75
2022/01/25 02:34:13;;;;;;;41.72;25.00;;;5.40;52.50;;;;;;5051674;28;20401;-74
2022/01/25 02:36:39;;;;;;;43.03;25.80;;;5.40;53.80;;;;;;5045575;28;20436;-75
2022/01/25 02:39:04;;;;;;;47.60;26.70;;;5.40;53.90;;;;;;5046340;28;20477;-75
2022/01/25 02:41:30;;;;;;;44.67;25.13;;;5.30;55.30;;;;;;5062359;28;20388;-74
2022/01/25 02:43:58;;;;;;;42.93;25.00;;;5.30;56.60;;;;;;5064600;28;20392;-74
2022/01/25 02:48:57;;;;;;;41.73;25.30;;;5.20;58.00;;;;;;5051014;28;20510;-74
2022/01/25 02:51:33;;;;;;;37.38;23.15;;;5.20;57.10;;;;;;5045465;28;20393;-74
2022/01/25 02:53:59;;;;;;;43.22;24.60;;;5.30;57.80;;;;;;5032043;28;20390;-74
2022/01/25 02:56:26;;;;;;;42.97;25.10;;;5.30;57.60;;;;;;5048962;28;20405;-74
2022/01/25 02:58:52;;;;;;;44.70;25.20;;;5.50;55.90;;;;;;5050883;28;20488;-74
2022/01/25 03:01:20;;;;;;;47.70;27.33;;;5.70;52.20;;;;;;5049397;28;20484;-74
2022/01/25 03:03:46;;;;;;;46.90;25.75;;;5.60;52.80;;;;;;5043353;28;20754;-74
2022/01/25 03:06:17;;;;;;;43.33;25.95;;;5.50;54.00;;;;;;5050650;28;20454;-74
2022/01/25 03:08:43;;;;;;;41.47;26.77;;;5.50;54.30;;;;;;5048577;28;20758;-74
2022/01/25 03:11:09;;;;;;;46.47;25.73;;;5.40;54.70;;;;;;5046775;28;20409;-74
2022/01/25 03:13:47;;;;;;;46.17;26.73;;;5.30;56.20;;;;;;5050645;28;20389;-74
2022/01/25 03:16:20;;;;;;;42.00;25.98;;;5.30;57.00;;;;;;5046338;28;20380;-74
2022/01/25 03:18:48;;;;;;;39.83;24.95;;;5.60;54.40;;;;;;5050313;28;20508;-74
2022/01/25 03:23:58;;;;;;;42.47;26.70;;;5.40;55.40;;;;;;5050320;28;20497;-74
2022/01/25 03:26:25;;;;;;;44.10;26.33;;;5.40;55.60;;;;;;5049354;28;20825;-74
2022/01/25 03:28:52;;;;;;;47.80;26.85;;;5.40;54.20;;;;;;5050311;28;20392;-74
2022/01/25 03:31:18;;;;;;;47.13;25.80;;;5.40;53.10;;;;;;5042052;28;20409;-74
2022/01/25 03:33:44;;;;;;;45.63;26.92;;;5.50;54.50;;;;;;5044526;28;20909;-74
2022/01/25 03:36:10;;;;;;;41.95;27.00;;;5.60;51.40;;;;;;5043657;28;20890;-74
2022/01/25 03:38:37;;;;;;;40.88;24.65;;;5.60;52.30;;;;;;5049974;28;20412;-74
2022/01/25 03:41:08;;;;;;;42.92;25.65;;;5.80;49.00;;;;;;5031420;28;20397;-74
2022/01/25 03:43:35;;;;;;;45.03;25.25;;;5.70;49.80;;;;;;5032218;28;20382;-74
2022/01/25 03:46:10;;;;;;;42.20;25.90;;;5.50;51.00;;;;;;5050306;28;20439;-74
2022/01/25 03:51:20;;;;;;;44.90;25.70;;;5.80;49.00;;;;;;5040637;28;20395;-74
2022/01/25 03:53:46;;;;;;;45.30;25.47;;;6.00;47.00;;;;;;5051522;28;20381;-74
2022/01/25 03:56:12;;;;;;;42.53;25.47;;;6.00;47.80;;;;;;5052681;28;20502;-74
2022/01/25 03:58:37;;;;;;;43.63;24.90;;;5.90;47.40;;;;;;5044150;28;20880;-74
2022/01/25 04:01:03;;;;;;;45.10;27.27;;;5.90;48.40;;;;;;5016931;28;20414;-74
2022/01/25 04:03:35;;;;;;;47.33;24.70;;;5.80;47.70;;;;;;5045698;28;20402;-74
2022/01/25 04:06:02;;;;;;;43.58;24.30;;;5.70;49.40;;;;;;5054204;28;20377;-74
2022/01/25 04:08:27;;;;;;;37.10;22.95;;;5.80;48.20;;;;;;5053670;28;20889;-74
2022/01/25 04:10:53;;;;;;;46.55;26.27;;;5.70;46.90;;;;;;5047818;28;20441;-74
2022/01/25 04:13:19;;;;;;;48.17;27.83;;;5.60;49.00;;;;;;5033324;28;20432;-74
2022/01/25 04:15:46;;;;;;;49.13;27.55;;;5.50;50.20;;;;;;5055065;28;20397;-74
2022/01/25 04:21:11;;;;;;;52.40;28.08;;;5.50;50.60;;;;;;5045811;28;20408;-74
2022/01/25 04:26:21;;;;;;;48.55;28.10;;;5.30;53.50;;;;;;5060947;28;20409;-73
2022/01/25 04:28:47;;;;;;;51.63;28.90;;;5.20;53.50;;;;;;5068674;28;20389;-75
2022/01/25 04:31:16;;;;;;;58.05;29.85;;;5.10;53.90;;;;;;5067088;28;20389;-73
2022/01/25 04:33:43;;;;;;;50.50;28.83;;;5.00;54.00;;;;;;5066834;28;20370;-73
2022/01/25 04:49:34;;;;;;;57.28;30.77;;;5.20;52.50;;;;;;5039619;28;20898;-73
2022/01/25 04:52:10;;;;;;;51.72;28.85;;;5.30;51.30;;;;;;5050121;28;20402;-75
2022/01/25 04:57:23;;;;;;;57.80;29.10;;;5.10;53.00;;;;;;5053427;28;20409;-74
2022/01/25 05:00:05;;;;;;;60.03;31.30;;;5.10;54.00;;;;;;5036983;28;20401;-74
2022/01/25 05:05:08;;;;;;;53.90;29.85;;;5.00;54.70;;;;;;5054780;28;20486;-74
2022/01/25 05:10:07;;;;;;;50.22;27.38;;;5.10;55.20;;;;;;5056607;28;20422;-74
2022/01/25 05:12:46;;;;;;;56.75;28.35;;;5.40;51.70;;;;;;5056676;28;20394;-73
2022/01/25 05:15:38;;;;;;;54.35;30.13;;;5.30;50.90;;;;;;5053143;28;20431;-73
2022/01/25 05:18:12;;;;;;;54.53;28.60;;;5.20;52.30;;;;;;5033499;28;20411;-74
2022/01/25 05:23:22;;;;;;;50.00;28.33;;;5.10;54.10;;;;;;5047787;28;20396;-73
2022/01/25 05:25:48;;;;;;;48.87;26.53;;;5.10;54.50;;;;;;5055569;28;20385;-73
2022/01/25 05:28:13;;;;;;;51.90;29.60;;;5.10;54.20;;;;;;5059253;28;20480;-74
2022/01/25 05:30:39;;;;;;;46.42;27.30;;;5.20;54.60;;;;;;5059145;28;20417;-74
2022/01/25 05:33:05;;;;;;;50.53;28.30;;;5.30;51.70;;;;;;5053870;28;20874;-74
2022/01/25 05:35:31;;;;;;;60.85;29.92;;;5.30;52.00;;;;;;5056646;28;20401;-74
2022/01/25 05:37:57;;;;;;;56.83;29.20;;;5.20;53.10;;;;;;5064250;28;20409;-74
2022/01/25 05:40:58;;;;;;;54.60;29.33;;;5.10;53.60;;;;;;5055453;28;20460;-74
2022/01/25 05:48:11;;;;;;;52.28;27.63;;;5.00;53.40;;;;;;5032649;28;20422;-72
2022/01/25 05:50:37;;;;;;;46.83;26.10;;;5.00;54.10;;;;;;5037574;28;20382;-74
2022/01/25 05:53:03;;;;;;;46.50;26.08;;;5.00;52.80;;;;;;5047550;28;20407;-73
2022/01/25 05:55:29;;;;;;;50.70;26.90;;;5.10;53.40;;;;;;5043557;28;20503;-75
2022/01/25 05:57:55;;;;;;;49.58;26.42;;;5.10;51.90;;;;;;5051974;28;20413;-73
2022/01/25 06:00:21;;;;;;;54.40;30.40;;;5.10;51.30;;;;;;5059536;28;20416;-75
2022/01/25 06:02:47;;;;;;;50.72;28.65;;;5.00;52.10;;;;;;5057271;28;20405;-74
2022/01/25 06:05:13;;;;;;;47.47;27.85;;;4.90;53.70;;;;;;5056253;28;20779;-73
2022/01/25 06:07:38;;;;;;;53.93;29.10;;;5.00;54.30;;;;;;5063011;28;20394;-72
2022/01/25 06:10:04;;;;;;;51.23;27.63;;;4.90;53.50;;;;;;5068479;28;20404;-75
2022/01/25 06:12:30;;;;;;;55.60;29.40;;;4.90;54.60;;;;;;5051496;28;20385;-73
2022/01/25 06:14:56;;;;;;;51.00;28.85;;;5.10;53.30;;;;;;5022883;28;20410;-73
2022/01/25 06:17:21;;;;;;;49.63;28.43;;;5.20;51.50;;;;;;5048008;28;20965;-74
2022/01/25 06:19:47;;;;;;;48.50;27.40;;;5.20;52.10;;;;;;5051826;28;20442;-73
2022/01/25 06:22:12;;;;;;;46.90;26.70;;;5.40;50.10;;;;;;5033245;28;20385;-75
2022/01/25 06:24:38;;;;;;;44.03;26.00;;;5.50;49.20;;;;;;5030532;28;20794;-74
2022/01/25 06:27:04;;;;;;;45.97;24.90;;;5.50;49.10;;;;;;5041962;28;20416;-76
2022/01/25 06:29:30;;;;;;;45.92;25.52;;;5.70;47.30;;;;;;5045861;28;20759;-75
2022/01/25 06:31:56;;;;;;;43.10;25.93;;;5.70;45.50;;;;;;5051900;28;20386;-74
2022/01/25 06:34:21;;;;;;;48.33;27.05;;;5.70;46.80;;;;;;5034089;28;20381;-74
2022/01/25 06:36:47;;;;;;;46.55;26.70;;;5.60;47.80;;;;;;5043354;28;20717;-74
2022/01/25 06:39:14;;;;;;;50.67;27.80;;;5.40;49.00;;;;;;5045835;28;20463;-74
2022/01/25 06:41:40;;;;;;;40.83;24.52;;;5.30;51.70;;;;;;5047008;28;20488;-73
2022/01/25 06:44:06;;;;;;;44.33;24.90;;;5.40;48.70;;;;;;5028460;28;20432;-75
2022/01/25 06:46:31;;;;;;;48.63;27.27;;;5.40;50.30;;;;;;5051240;28;20374;-74
2022/01/25 06:48:57;;;;;;;49.38;26.65;;;5.40;51.30;;;;;;5034315;28;20449;-74
2022/01/25 06:51:23;;;;;;;45.97;26.40;;;5.50;49.30;;;;;;5054099;28;20439;-75
2022/01/25 06:53:48;;;;;;;43.40;26.23;;;5.40;50.00;;;;;;5027516;28;20882;-75
2022/01/25 06:56:14;;;;;;;49.50;27.70;;;5.30;49.70;;;;;;5047216;28;20400;-76
2022/01/25 06:58:41;;;;;;;52.57;29.23;;;5.10;50.90;;;;;;5051409;28;20405;-75
2022/01/25 07:01:08;;;;;;;52.15;29.80;;;4.90;53.00;;;;;;5051662;28;20405;-73
2022/01/25 07:03:34;;;;;;;53.67;29.55;;;4.90;54.20;;;;;;5049966;28;20387;-77
2022/01/25 07:06:00;;;;;;;50.95;27.55;;;5.20;51.60;;;;;;5038257;28;20711;-75
2022/01/25 07:08:25;;;;;;;50.63;26.80;;;5.40;48.80;;;;;;5054578;28;20399;-74
2022/01/25 07:10:51;;;;;;;50.93;28.87;;;5.40;49.60;;;;;;5046622;28;20401;-74
2022/01/25 07:13:16;;;;;;;49.10;26.73;;;5.50;48.10;;;;;;5051221;28;20413;-75
2022/01/25 07:15:42;;;;;;;50.73;28.30;;;5.20;50.00;;;;;;5051765;28;20404;-74
2022/01/25 07:18:08;;;;;;;50.08;27.15;;;5.10;51.30;;;;;;5049743;28;20408;-75
2022/01/25 07:20:33;;;;;;;50.55;28.63;;;5.10;53.10;;;;;;5055359;28;20405;-75
2022/01/25 07:22:59;;;;;;;53.58;30.00;;;5.00;53.30;;;;;;5044899;28;20411;-75
2022/01/25 07:25:26;;;;;;;50.33;27.95;;;5.00;53.80;;;;;;5054874;28;20393;-76
2022/01/25 07:27:52;;;;;;;47.85;28.08;;;5.00;52.80;;;;;;5052907;28;20378;-75
2022/01/25 07:30:17;;;;;;;51.42;28.10;;;5.10;52.20;;;;;;5051170;28;20415;-75
2022/01/25 07:32:43;;;;;;;47.20;27.98;;;5.00;52.10;;;;;;5048045;28;20399;-75
2022/01/25 07:35:09;;;;;;;51.93;26.93;;;4.90;51.90;;;;;;5038484;28;20407;-75
2022/01/25 07:37:35;;;;;;;52.05;28.45;;;5.10;51.50;;;;;;5029161;28;20522;-75
2022/01/25 07:40:01;;;;;;;46.55;27.27;;;5.10;49.90;;;;;;5034549;28;20394;-75
2022/01/25 07:42:28;;;;;;;49.87;27.87;;;5.10;52.60;;;;;;5055432;28;20392;-74
2022/01/25 07:44:55;;;;;;;45.95;26.13;;;5.10;51.30;;;;;;5055844;28;20382;-74
2022/01/25 07:47:20;;;;;;;50.55;28.80;;;5.10;52.40;;;;;;5055272;28;20385;-74
2022/01/25 07:49:46;;;;;;;50.88;28.90;;;5.10;52.10;;;;;;5055018;28;20439;-76
2022/01/25 07:52:12;;;;;;;49.08;27.83;;;5.10;52.20;;;;;;5053318;28;20744;-75
2022/01/25 07:54:37;;;;;;;45.97;26.45;;;5.10;52.30;;;;;;5041885;28;20397;-74
2022/01/25 07:57:03;;;;;;;46.28;28.35;;;5.10;52.60;;;;;;5051899;28;20389;-73
2022/01/25 07:59:29;;;;;;;51.67;27.93;;;5.20;50.80;;;;;;5052463;28;20855;-72
2022/01/25 08:01:54;;;;;;;55.47;29.00;;;5.10;50.00;;;;;;5050764;28;20921;-72
2022/01/25 08:04:20;;;;;;;50.33;29.20;;;5.00;51.60;;;;;;5054960;28;20390;-71
2022/01/25 08:06:45;;;;;;;51.30;29.67;;;5.00;52.30;;;;;;5043565;28;20394;-73
2022/01/25 08:09:12;;;;;;;61.30;30.80;;;4.90;52.20;;;;;;5037179;28;20453;-72
2022/01/25 08:11:37;;;;;;;48.72;28.40;;;4.90;53.40;;;;;;5044287;28;20418;-74
2022/01/25 08:14:16;;;;;;;43.70;27.50;;;4.90;53.00;;;;;;5047967;28;20391;-74
2022/01/25 08:16:45;;;;;;;49.53;28.50;;;4.80;53.70;;;;;;5045258;28;20812;-72
2022/01/25 08:19:11;;;;;;;54.70;28.42;;;4.90;54.00;;;;;;5052910;28;20415;-72
2022/01/25 08:21:37;;;;;;;46.45;26.48;;;5.00;53.60;;;;;;5036905;28;20401;-72
2022/01/25 08:24:04;;;;;;;52.50;30.27;;;5.10;50.90;;;;;;5046326;28;20511;-73
2022/01/25 08:26:33;;;;;;;49.92;27.98;;;5.00;50.50;;;;;;5042874;28;20908;-71
2022/01/25 08:28:59;;;;;;;51.95;30.13;;;4.90;50.50;;;;;;5039955;28;20397;-74
2022/01/25 08:31:24;;;;;;;52.38;28.10;;;4.90;52.00;;;;;;5057550;28;20385;-75
2022/01/25 08:33:50;;;;;;;48.00;27.25;;;4.90;53.80;;;;;;5055285;28;20404;-74
2022/01/25 08:36:16;;;;;;;56.20;28.07;;;4.90;54.20;;;;;;5024143;28;20406;-74
2022/01/25 08:38:42;;;;;;;48.00;27.17;;;5.10;51.40;;;;;;5053697;28;20398;-75
2022/01/25 08:41:08;;;;;;;50.67;28.60;;;5.00;52.30;;;;;;5038287;28;20394;-74
2022/01/25 08:43:34;;;;;;;48.07;28.00;;;5.00;51.60;;;;;;5043139;28;20391;-74
2022/01/25 08:46:01;;;;;;;48.38;26.95;;;5.00;50.70;;;;;;5055567;28;20385;-74
2022/01/25 08:48:27;;;;;;;53.20;29.05;;;5.00;49.30;;;;;;5036105;28;20497;-74
2022/01/25 08:50:53;;;;;;;53.80;28.00;;;4.90;50.10;;;;;;5038117;28;20411;-74
2022/01/25 08:53:19;;;;;;;53.50;28.65;;;4.90;50.90;;;;;;5036411;28;20391;-74
2022/01/25 08:55:45;;;;;;;50.95;26.40;;;4.90;51.50;;;;;;5050172;28;20436;-76
2022/01/25 08:58:10;;;;;;;55.28;28.45;;;4.90;50.80;;;;;;5052068;28;20398;-75
2022/01/25 09:00:36;;;;;;;55.42;30.15;;;5.00;50.20;;;;;;5025567;28;20748;-74
2022/01/25 09:03:02;;;;;;;51.33;29.15;;;5.10;49.20;;;;;;5053094;28;20393;-75
2022/01/25 09:05:28;;;;;;;57.50;29.25;;;5.00;49.40;;;;;;5040973;28;20395;-75
2022/01/25 09:07:56;;;;;;;46.50;27.87;;;5.00;50.30;;;;;;5053966;28;20421;-74
2022/01/25 09:10:26;;;;;;;48.65;28.00;;;5.10;50.50;;;;;;5055318;28;20389;-74
2022/01/25 09:12:52;;;;;;;51.10;28.63;;;5.10;50.60;;;;;;5054287;28;20439;-75
2022/01/25 09:15:18;;;;;;;50.25;27.98;;;5.10;50.00;;;;;;5039363;28;20411;-75
2022/01/25 09:17:44;;;;;;;59.10;31.55;;;5.10;49.40;;;;;;5048132;28;20405;-74
2022/01/25 09:20:10;;;;;;;62.83;32.30;;;5.10;49.50;;;;;;5049614;28;20408;-74
2022/01/25 09:22:36;;;;;;;56.95;31.52;;;5.10;49.90;;;;;;5062214;28;20381;-75
2022/01/25 09:25:01;;;;;;;54.17;29.80;;;5.10;49.60;;;;;;5057901;28;20382;-77
2022/01/25 09:27:27;;;;;;;53.83;29.30;;;5.10;49.90;;;;;;5054878;28;20396;-75
2022/01/25 09:29:53;;;;;;;47.03;27.05;;;5.20;49.70;;;;;;5047498;28;20417;-73
2022/01/25 09:32:19;;;;;;;51.37;28.23;;;5.30;49.40;;;;;;5059565;28;20751;-73
2022/01/25 09:34:46;;;;;;;51.60;29.73;;;5.30;48.50;;;;;;5047229;28;20395;-72
2022/01/25 09:37:12;;;;;;;55.22;28.95;;;5.30;48.50;;;;;;5054576;28;20401;-75
2022/01/25 09:39:37;;;;;;;51.43;28.97;;;5.20;48.80;;;;;;5052634;28;20742;-73
2022/01/25 09:42:08;;;;;;;58.08;29.05;;;5.10;49.30;;;;;;5033606;28;20387;-74
2022/01/25 09:44:36;;;;;;;54.67;28.40;;;5.30;49.80;;;;;;5049512;28;20480;-74
2022/01/25 09:47:02;;;;;;;56.22;30.20;;;5.40;49.00;;;;;;5055409;28;20468;-74
2022/01/25 09:49:28;;;;;;;64.95;28.98;;;5.40;48.80;;;;;;5037371;28;20478;-74
2022/01/25 09:51:55;;;;;;;49.50;25.90;;;5.40;48.10;;;;;;5065232;28;20412;-73
2022/01/25 09:54:21;;;;;;;54.03;28.10;;;5.50;47.50;;;;;;5063417;28;20789;-75
2022/01/25 09:56:46;;;;;;;60.40;30.63;;;5.40;47.30;;;;;;5055100;28;20451;-73
2022/01/25 09:59:12;;;;;;;49.10;27.90;;;5.30;48.00;;;;;;5039826;28;20435;-73
2022/01/25 10:01:37;;;;;;;56.15;30.50;;;5.30;49.50;;;;;;5032894;28;20410;-73
2022/01/25 10:04:23;;;;;;;54.33;28.05;;;5.30;48.80;;;;;;5015429;28;20387;-73
2022/01/25 10:06:49;;;;;;;56.25;29.67;;;5.20;48.40;;;;;;5043630;28;20384;-74
2022/01/25 10:09:15;;;;;;;55.67;28.42;;;5.20;48.70;;;;;;5061903;28;20387;-73
2022/01/25 10:11:41;;;;;;;50.57;26.77;;;5.50;49.70;;;;;;5054460;28;20435;-73
2022/01/25 10:14:07;;;;;;;51.77;27.10;;;6.00;44.30;;;;;;5048664;28;20395;-74
2022/01/25 10:16:36;;;;;;;53.20;27.25;;;5.80;43.40;;;;;;5032317;28;20402;-74
2022/01/25 10:19:07;;;;;;;53.83;26.75;;;5.60;45.30;;;;;;5051415;28;20415;-73
2022/01/25 10:21:35;;;;;;;51.63;27.63;;;5.30;45.60;;;;;;5041500;28;20411;-73
2022/01/25 10:24:15;;;;;;;51.72;26.63;;;5.30;47.20;;;;;;5041733;28;20395;-74
2022/01/25 10:26:53;;;;;;;63.58;29.98;;;5.30;47.90;;;;;;5030195;28;20399;-74
2022/01/25 10:29:23;;;;;;;55.63;27.85;;;5.30;48.00;;;;;;5042180;28;20415;-73
2022/01/25 10:31:53;;;;;;;51.10;25.23;;;5.40;46.70;;;;;;5028347;28;20431;-76
2022/01/25 10:34:27;;;;;;;50.70;26.85;;;5.60;46.80;;;;;;5033909;28;20387;-74
2022/01/25 10:36:53;;;;;;;56.30;27.15;;;5.60;45.40;;;;;;5033327;28;20414;-74
2022/01/25 10:39:32;;;;;;;54.50;28.70;;;5.50;46.20;;;;;;5038205;28;20414;-73
2022/01/25 10:42:08;;;;;;;58.53;27.90;;;5.40;46.50;;;;;;5035951;28;20409;-74
2022/01/25 10:45:02;;;;;;;61.17;29.02;;;5.40;48.20;;;;;;5031822;28;20376;-74
2022/01/25 10:47:45;;;;;;;66.47;29.93;;;5.40;48.30;;;;;;5032330;28;20389;-74
2022/01/25 10:50:23;;;;;;;59.33;28.50;;;5.30;47.30;;;;;;5037440;28;20776;-76
2022/01/25 10:53:15;;;;;;;46.92;26.33;;;5.50;48.40;;;;;;5064499;28;20852;-75
2022/01/25 10:55:51;;;;;;;51.53;27.17;;;5.60;46.20;;;;;;5073908;28;20392;-77
2022/01/25 10:58:17;;;;;;;54.75;27.85;;;5.60;45.70;;;;;;5057128;28;20433;-74
2022/01/25 11:00:47;;;;;;;55.95;27.77;;;5.60;45.90;;;;;;5064216;28;20502;-75
2022/01/25 11:03:35;;;;;;;50.67;26.42;;;5.60;46.30;;;;;;5053024;28;20387;-73
2022/01/25 11:06:11;;;;;;;56.80;27.08;;;5.60;46.20;;;;;;5030820;28;20404;-75
2022/01/25 11:08:38;;;;;;;53.03;27.70;;;5.60;46.60;;;;;;5031173;28;20460;-75
2022/01/25 11:11:07;;;;;;;56.38;29.05;;;5.60;47.70;;;;;;5028460;28;20962;-74
2022/01/25 11:13:36;;;;;;;54.10;28.60;;;5.70;46.90;;;;;;5070801;28;20413;-75
2022/01/25 11:16:08;;;;;;;51.03;26.67;;;5.70;46.10;;;;;;5044502;28;20896;-74
2022/01/25 11:18:34;;;;;;;55.40;29.02;;;5.80;45.10;;;;;;5050644;28;20416;-75
2022/01/25 11:21:04;;;;;;;55.97;29.17;;;5.70;45.40;;;;;;5049631;28;20902;-74
2022/01/25 11:23:35;;;;;;;62.08;30.05;;;5.90;44.00;;;;;;5048988;28;20399;-75
2022/01/25 11:26:03;;;;;;;57.97;30.13;;;5.90;42.50;;;;;;5070277;28;20606;-76
2022/01/25 11:28:31;;;;;;;51.70;27.88;;;5.80;43.10;;;;;;5072518;28;20395;-75
2022/01/25 11:31:00;;;;;;;56.53;28.08;;;5.70;44.10;;;;;;5044173;28;20390;-77
2022/01/25 11:33:28;;;;;;;59.97;28.73;;;5.60;43.80;;;;;;5032511;28;20407;-74
2022/01/25 11:35:54;;;;;;;61.30;29.85;;;5.70;44.40;;;;;;5041969;28;20404;-74
2022/01/25 11:38:45;;;;;;;58.58;28.40;;;5.60;44.30;;;;;;5045105;28;20409;-74
2022/01/25 11:41:13;;;;;;;57.70;28.05;;;5.70;45.70;;;;;;5056617;28;20421;-73
2022/01/25 11:43:42;;;;;;;58.33;27.60;;;5.70;44.10;;;;;;5024184;28;20402;-75
2022/01/25 11:46:08;;;;;;;53.30;27.83;;;5.70;43.10;;;;;;5022690;28;20399;-73
2022/01/25 11:48:44;;;;;;;55.92;28.02;;;5.70;43.20;;;;;;5047506;28;20405;-75
2022/01/25 11:51:18;;;;;;;52.88;26.90;;;5.80;43.60;;;;;;5060140;28;20404;-74
2022/01/25 11:53:48;;;;;;;57.97;27.60;;;5.90;43.30;;;;;;5051384;28;20575;-75
2022/01/25 11:56:14;;;;;;;54.05;28.90;;;5.80;42.20;;;;;;5056171;28;20392;-74
2022/01/25 11:58:41;;;;;;;60.63;28.77;;;5.80;42.60;;;;;;5052837;28;20496;-75
2022/01/25 12:01:18;;;;;;;56.20;28.63;;;5.90;43.00;;;;;;5050788;28;20472;-76
2022/01/25 12:03:46;;;;;;;59.13;28.17;;;6.00;42.50;;;;;;5049849;28;20399;-74
2022/01/25 12:06:28;;;;;;;61.38;28.65;;;6.00;41.40;;;;;;5034578;28;20459;-74
2022/01/25 12:09:07;;;;;;;59.58;27.50;;;6.00;40.70;;;;;;5043972;28;20395;-75
2022/01/25 12:11:46;;;;;;;52.60;25.08;;;5.90;41.00;;;;;;5035783;28;20401;-74
2022/01/25 12:14:18;;;;;;;55.65;26.25;;;6.30;39.10;;;;;;5034231;28;20402;-75
2022/01/25 12:17:04;;;;;;;58.65;27.02;;;6.50;37.40;;;;;;5046632;28;20398;-74
2022/01/25 12:19:48;;;;;;;57.65;28.02;;;6.50;37.80;;;;;;5036304;28;20935;-76
2022/01/25 12:22:16;;;;;;;62.88;28.25;;;6.50;38.00;;;;;;5041001;28;20435;-74
2022/01/25 12:24:52;;;;;;;65.90;29.83;;;6.20;38.40;;;;;;5040635;28;20390;-73
2022/01/25 12:27:33;;;;;;;62.80;28.80;;;6.00;39.90;;;;;;5053001;28;20397;-74
2022/01/25 12:30:13;;;;;;;92.05;36.55;;;5.90;40.90;;;;;;5054182;28;20436;-75
2022/01/25 12:32:48;;;;;;;62.83;30.25;;;6.00;41.50;;;;;;5044994;28;20398;-76
2022/01/25 12:35:16;;;;;;;66.63;29.45;;;5.90;42.40;;;;;;5042650;28;20415;-76
2022/01/25 12:37:45;;;;;;;63.37;28.37;;;6.00;42.90;;;;;;5065325;28;20477;-75
2022/01/25 12:40:25;;;;;;;64.57;28.83;;;6.00;41.30;;;;;;5057909;28;20391;-75
2022/01/25 12:42:58;;;;;;;64.47;29.83;;;5.90;41.80;;;;;;5053982;28;20511;-74
2022/01/25 12:45:28;;;;;;;60.80;29.10;;;6.00;41.80;;;;;;5053914;28;20373;-72
2022/01/25 12:48:03;;;;;;;61.05;28.05;;;6.00;40.20;;;;;;5050513;28;20400;-73
2022/01/25 12:50:29;;;;;;;67.38;30.48;;;6.00;40.10;;;;;;5066473;28;20381;-72
2022/01/25 12:52:58;;;;;;;62.63;29.20;;;5.90;41.30;;;;;;5051812;28;20765;-73
2022/01/25 12:55:29;;;;;;;65.88;29.45;;;5.90;41.50;;;;;;5023966;28;20399;-74
2022/01/25 12:57:55;;;;;;;65.63;29.60;;;5.90;41.50;;;;;;5052813;28;20409;-74
2022/01/25 13:00:26;;;;;;;63.53;28.15;;;6.00;41.50;;;;;;5054298;28;20722;-73
2022/01/25 13:02:52;;;;;;;62.65;29.42;;;6.00;41.10;;;;;;5044328;28;20388;-74
2022/01/25 13:05:21;;;;;;;62.63;28.15;;;6.00;40.60;;;;;;5034726;28;20777;-73
2022/01/25 13:07:47;;;;;;;61.08;29.92;;;5.90;41.20;;;;;;5044073;28;20758;-74
2022/01/25 13:10:24;;;;;;;62.63;27.73;;;5.90;41.80;;;;;;5047325;28;20390;-73
2022/01/25 13:13:10;;;;;;;58.50;27.13;;;6.00;42.50;;;;;;5037198;28;20395;-73
2022/01/25 13:18:14;;;;;;;65.28;30.02;;;6.00;40.20;;;;;;5057212;28;20394;-73
2022/01/25 13:20:43;;;;;;;59.15;28.35;;;5.90;41.30;;;;;;5036896;28;20418;-74
2022/01/25 13:23:11;;;;;;;63.92;28.20;;;5.90;42.00;;;;;;5057052;28;20394;-75
2022/01/25 13:26:07;;;;;;;54.47;26.73;;;5.90;42.10;;;;;;5050641;28;20392;-74
2022/01/25 13:31:09;;;;;;;55.37;27.80;;;6.30;39.40;;;;;;5050277;28;20410;-76
2022/01/25 13:33:35;;;;;;;62.45;26.38;;;6.10;39.60;;;;;;5056081;28;20391;-74
2022/01/25 13:36:01;;;;;;;59.75;26.92;;;6.00;40.00;;;;;;5073551;28;20419;-76
2022/01/25 13:38:37;;;;;;;61.33;27.30;;;6.00;40.50;;;;;;5064805;28;20460;-76
2022/01/25 13:46:41;;;;;;;61.20;29.27;;;5.90;40.60;;;;;;5055624;28;20466;-75
2022/01/25 13:49:14;;;;;;;58.95;27.92;;;5.90;40.90;;;;;;5053352;28;20377;-75
2022/01/25 13:51:40;;;;;;;61.92;28.80;;;5.90;41.10;;;;;;5052620;28;20407;-74
2022/01/25 13:54:06;;;;;;;60.67;27.80;;;5.90;41.40;;;;;;5065643;28;20399;-74
2022/01/25 13:56:34;;;;;;;61.17;26.77;;;5.90;41.70;;;;;;5073589;28;20395;-75
2022/01/25 13:59:03;;;;;;;61.17;28.50;;;5.90;41.60;;;;;;5078488;28;20447;-74
2022/01/25 14:01:30;;;;;;;60.97;28.25;;;5.90;41.40;;;;;;5041226;28;20399;-74
2022/01/25 14:04:00;;;;;;;62.42;29.33;;;5.90;41.40;;;;;;5033221;28;20379;-77
2022/01/25 14:06:39;;;;;;;57.50;27.63;;;6.00;41.40;;;;;;5032776;28;20792;-74
2022/01/25 14:09:13;;;;;;;61.55;28.20;;;6.00;40.80;;;;;;5070217;28;20752;-76
2022/01/25 14:25:13;;;;;;;62.65;27.27;;;6.00;40.80;;;;;;5055246;28;20768;-76
2022/01/25 14:27:50;;;;;;;60.30;28.27;;;5.90;40.90;;;;;;5069799;28;20853;-75
2022/01/25 14:30:18;;;;;;;60.00;28.38;;;5.90;41.00;;;;;;5045421;28;20891;-75
2022/01/25 14:32:44;;;;;;;63.63;28.08;;;6.20;39.80;;;;;;5053548;28;20782;-75
2022/01/25 14:35:11;;;;;;;60.85;26.38;;;6.00;40.00;;;;;;5052697;28;20389;-76
2022/01/25 14:37:48;;;;;;;62.55;27.38;;;6.10;40.70;;;;;;5051814;28;20417;-77
2022/01/25 14:40:15;;;;;;;59.90;28.55;;;5.90;40.60;;;;;;5053548;28;20442;-75
2022/01/25 14:42:43;;;;;;;60.35;27.52;;;5.90;41.40;;;;;;5058152;28;20869;-75
2022/01/25 14:45:13;;;;;;;56.45;26.77;;;5.80;41.70;;;;;;5061955;28;20429;-74
2022/01/25 14:47:42;;;;;;;65.40;27.95;;;5.90;41.20;;;;;;5067765;28;20404;-73
2022/01/25 14:50:16;;;;;;;56.95;28.10;;;5.80;41.70;;;;;;5053148;28;20958;-74